sensor_id;sensor_type;location;lat;lon;timestamp;P1;durP1;ratioP1;P2;durP2;ratioP2
20140;SDS011;10231;47.702;9.826;2024-01-15T00:01:03;20.70;;;12.73;;
20140;SDS011;10231;47.702;9.826;2024-01-15T00:03:29;17.60;;;12.40;;
20140;SDS011;10231;47.702;9.826;2024-01-15T00:05:54;20.83;;;12.87;;
20140;SDS011;10231;47.702;9.826;2024-01-15T00:08:20;22.07;;;14.10;;
20140;SDS011;10231;47.702;9.826;2024-01-15T00:10:46;20.13;;;13.10;;
20140;SDS011;10231;47.702;9.826;2024-01-15T00:13:11;22.00;;;12.93;;
20140;SDS011;10231;47.702;9.826;2024-01-15T00:15:37;19.97;;;13.23;;
20140;SDS011;10231;47.702;9.826;2024-01-15T00:18:03;24.13;;;14.03;;
20140;SDS011;10231;47.702;9.826;2024-01-15T00:20:29;19.30;;;12.70;;
20140;SDS011;10231;47.702;9.826;2024-01-15T00:22:54;22.87;;;13.03;;
20140;SDS011;10231;47.702;9.826;2024-01-15T00:25:20;22.27;;;12.80;;
20140;SDS011;10231;47.702;9.826;2024-01-15T00:27:46;21.37;;;13.37;;
20140;SDS011;10231;47.702;9.826;2024-01-15T00:30:12;20.40;;;12.53;;
20140;SDS011;10231;47.702;9.826;2024-01-15T00:32:38;21.07;;;12.77;;
20140;SDS011;10231;47.702;9.826;2024-01-15T00:35:04;19.03;;;12.17;;
20140;SDS011;10231;47.702;9.826;2024-01-15T00:37:30;20.83;;;12.40;;
20140;SDS011;10231;47.702;9.826;2024-01-15T00:39:55;20.03;;;12.57;;
20140;SDS011;10231;47.702;9.826;2024-01-15T00:42:21;22.37;;;12.87;;
20140;SDS011;10231;47.702;9.826;2024-01-15T00:44:47;19.50;;;13.00;;
20140;SDS011;10231;47.702;9.826;2024-01-15T00:47:13;19.33;;;12.83;;
20140;SDS011;10231;47.702;9.826;2024-01-15T00:49:38;21.47;;;13.17;;
20140;SDS011;10231;47.702;9.826;2024-01-15T00:52:04;20.53;;;13.23;;
20140;SDS011;10231;47.702;9.826;2024-01-15T00:54:30;21.80;;;12.50;;
20140;SDS011;10231;47.702;9.826;2024-01-15T00:56:56;19.20;;;11.97;;
20140;SDS011;10231;47.702;9.826;2024-01-15T00:59:21;19.97;;;12.53;;
20140;SDS011;10231;47.702;9.826;2024-01-15T01:01:47;20.63;;;11.70;;
20140;SDS011;10231;47.702;9.826;2024-01-15T01:04:13;18.27;;;11.97;;
20140;SDS011;10231;47.702;9.826;2024-01-15T01:06:38;18.87;;;11.97;;
20140;SDS011;10231;47.702;9.826;2024-01-15T01:09:04;19.23;;;12.07;;
20140;SDS011;10231;47.702;9.826;2024-01-15T01:11:30;20.30;;;12.57;;
20140;SDS011;10231;47.702;9.826;2024-01-15T01:13:55;17.77;;;11.50;;
20140;SDS011;10231;47.702;9.826;2024-01-15T01:16:22;19.07;;;11.93;;
20140;SDS011;10231;47.702;9.826;2024-01-15T01:18:47;21.50;;;11.83;;
20140;SDS011;10231;47.702;9.826;2024-01-15T01:21:13;20.47;;;12.13;;
20140;SDS011;10231;47.702;9.826;2024-01-15T01:23:38;19.10;;;12.30;;
20140;SDS011;10231;47.702;9.826;2024-01-15T01:26:04;18.63;;;11.90;;
20140;SDS011;10231;47.702;9.826;2024-01-15T01:28:30;22.03;;;13.03;;
20140;SDS011;10231;47.702;9.826;2024-01-15T01:30:55;20.57;;;12.80;;
20140;SDS011;10231;47.702;9.826;2024-01-15T01:33:21;20.17;;;11.50;;
20140;SDS011;10231;47.702;9.826;2024-01-15T01:35:46;21.10;;;12.53;;
20140;SDS011;10231;47.702;9.826;2024-01-15T01:38:12;19.33;;;10.37;;
20140;SDS011;10231;47.702;9.826;2024-01-15T01:40:38;15.30;;;10.00;;
20140;SDS011;10231;47.702;9.826;2024-01-15T01:43:06;14.83;;;8.67;;
20140;SDS011;10231;47.702;9.826;2024-01-15T01:45:33;12.20;;;8.13;;
20140;SDS011;10231;47.702;9.826;2024-01-15T01:47:59;13.60;;;8.60;;
20140;SDS011;10231;47.702;9.826;2024-01-15T01:50:26;11.00;;;7.30;;
20140;SDS011;10231;47.702;9.826;2024-01-15T01:52:53;9.20;;;7.60;;
20140;SDS011;10231;47.702;9.826;2024-01-15T01:55:19;8.97;;;6.93;;
20140;SDS011;10231;47.702;9.826;2024-01-15T01:57:46;10.40;;;6.67;;
20140;SDS011;10231;47.702;9.826;2024-01-15T02:00:12;9.00;;;7.10;;
20140;SDS011;10231;47.702;9.826;2024-01-15T02:02:38;8.43;;;6.83;;
20140;SDS011;10231;47.702;9.826;2024-01-15T02:05:04;8.53;;;5.97;;
20140;SDS011;10231;47.702;9.826;2024-01-15T02:07:30;7.00;;;6.17;;
20140;SDS011;10231;47.702;9.826;2024-01-15T02:09:57;7.33;;;5.50;;
20140;SDS011;10231;47.702;9.826;2024-01-15T02:12:22;7.70;;;5.43;;
20140;SDS011;10231;47.702;9.826;2024-01-15T02:14:48;8.37;;;5.93;;
20140;SDS011;10231;47.702;9.826;2024-01-15T02:17:13;7.53;;;5.33;;
20140;SDS011;10231;47.702;9.826;2024-01-15T02:19:39;8.50;;;6.63;;
20140;SDS011;10231;47.702;9.826;2024-01-15T02:22:05;8.90;;;6.20;;
20140;SDS011;10231;47.702;9.826;2024-01-15T02:24:31;9.30;;;6.97;;
20140;SDS011;10231;47.702;9.826;2024-01-15T02:26:57;9.10;;;6.23;;
20140;SDS011;10231;47.702;9.826;2024-01-15T02:29:22;7.70;;;6.00;;
20140;SDS011;10231;47.702;9.826;2024-01-15T02:31:48;7.13;;;6.43;;
20140;SDS011;10231;47.702;9.826;2024-01-15T02:34:13;8.50;;;6.50;;
20140;SDS011;10231;47.702;9.826;2024-01-15T02:36:39;10.53;;;7.23;;
20140;SDS011;10231;47.702;9.826;2024-01-15T02:39:04;9.43;;;6.20;;
20140;SDS011;10231;47.702;9.826;2024-01-15T02:41:30;8.33;;;6.40;;
20140;SDS011;10231;47.702;9.826;2024-01-15T02:43:55;8.53;;;6.73;;
20140;SDS011;10231;47.702;9.826;2024-01-15T02:46:21;9.17;;;6.13;;
20140;SDS011;10231;47.702;9.826;2024-01-15T02:48:47;8.30;;;6.70;;
20140;SDS011;10231;47.702;9.826;2024-01-15T02:51:12;7.63;;;5.57;;
20140;SDS011;10231;47.702;9.826;2024-01-15T02:53:38;8.23;;;5.80;;
20140;SDS011;10231;47.702;9.826;2024-01-15T02:56:04;7.97;;;6.33;;
20140;SDS011;10231;47.702;9.826;2024-01-15T02:58:31;8.77;;;6.77;;
20140;SDS011;10231;47.702;9.826;2024-01-15T03:00:57;7.50;;;6.70;;
20140;SDS011;10231;47.702;9.826;2024-01-15T03:03:22;10.37;;;6.93;;
20140;SDS011;10231;47.702;9.826;2024-01-15T03:05:48;8.53;;;6.83;;
20140;SDS011;10231;47.702;9.826;2024-01-15T03:08:13;9.33;;;6.20;;
20140;SDS011;10231;47.702;9.826;2024-01-15T03:10:39;9.43;;;7.80;;
20140;SDS011;10231;47.702;9.826;2024-01-15T03:13:04;9.17;;;7.47;;
20140;SDS011;10231;47.702;9.826;2024-01-15T03:15:30;8.63;;;6.60;;
20140;SDS011;10231;47.702;9.826;2024-01-15T03:17:56;7.60;;;6.77;;
20140;SDS011;10231;47.702;9.826;2024-01-15T03:20:21;11.77;;;6.93;;
20140;SDS011;10231;47.702;9.826;2024-01-15T03:22:47;7.70;;;6.90;;
20140;SDS011;10231;47.702;9.826;2024-01-15T03:25:13;8.47;;;6.13;;
20140;SDS011;10231;47.702;9.826;2024-01-15T03:27:39;9.07;;;6.37;;
20140;SDS011;10231;47.702;9.826;2024-01-15T03:30:05;8.83;;;7.23;;
20140;SDS011;10231;47.702;9.826;2024-01-15T03:32:31;10.37;;;7.50;;
20140;SDS011;10231;47.702;9.826;2024-01-15T03:34:56;11.37;;;7.60;;
20140;SDS011;10231;47.702;9.826;2024-01-15T03:37:22;10.77;;;7.03;;
20140;SDS011;10231;47.702;9.826;2024-01-15T03:39:47;9.47;;;7.20;;
20140;SDS011;10231;47.702;9.826;2024-01-15T03:42:13;12.30;;;8.13;;
20140;SDS011;10231;47.702;9.826;2024-01-15T03:44:39;10.70;;;7.87;;
20140;SDS011;10231;47.702;9.826;2024-01-15T03:47:04;11.07;;;7.93;;
20140;SDS011;10231;47.702;9.826;2024-01-15T03:49:30;11.53;;;8.40;;
20140;SDS011;10231;47.702;9.826;2024-01-15T03:51:56;10.87;;;7.73;;
20140;SDS011;10231;47.702;9.826;2024-01-15T03:54:21;10.60;;;7.83;;
20140;SDS011;10231;47.702;9.826;2024-01-15T03:56:47;11.67;;;7.53;;
20140;SDS011;10231;47.702;9.826;2024-01-15T03:59:12;11.13;;;7.33;;
20140;SDS011;10231;47.702;9.826;2024-01-15T04:01:38;12.57;;;8.53;;
20140;SDS011;10231;47.702;9.826;2024-01-15T04:04:03;11.63;;;7.40;;
20140;SDS011;10231;47.702;9.826;2024-01-15T04:06:29;10.87;;;8.37;;
20140;SDS011;10231;47.702;9.826;2024-01-15T04:08:55;11.27;;;7.83;;
20140;SDS011;10231;47.702;9.826;2024-01-15T04:11:27;12.57;;;8.50;;
20140;SDS011;10231;47.702;9.826;2024-01-15T04:13:52;11.33;;;7.83;;
20140;SDS011;10231;47.702;9.826;2024-01-15T04:16:18;10.20;;;7.87;;
20140;SDS011;10231;47.702;9.826;2024-01-15T04:18:44;10.30;;;7.70;;
20140;SDS011;10231;47.702;9.826;2024-01-15T04:21:09;12.77;;;8.10;;
20140;SDS011;10231;47.702;9.826;2024-01-15T04:23:35;10.77;;;7.87;;
20140;SDS011;10231;47.702;9.826;2024-01-15T04:26:00;10.57;;;7.43;;
20140;SDS011;10231;47.702;9.826;2024-01-15T04:28:26;10.20;;;7.40;;
20140;SDS011;10231;47.702;9.826;2024-01-15T04:30:51;10.50;;;7.20;;
20140;SDS011;10231;47.702;9.826;2024-01-15T04:33:17;11.60;;;7.27;;
20140;SDS011;10231;47.702;9.826;2024-01-15T04:35:42;10.57;;;7.67;;
20140;SDS011;10231;47.702;9.826;2024-01-15T04:38:08;11.07;;;7.37;;
20140;SDS011;10231;47.702;9.826;2024-01-15T04:40:33;9.83;;;7.03;;
20140;SDS011;10231;47.702;9.826;2024-01-15T04:42:59;10.67;;;7.10;;
20140;SDS011;10231;47.702;9.826;2024-01-15T04:45:24;11.27;;;7.17;;
20140;SDS011;10231;47.702;9.826;2024-01-15T04:47:53;12.17;;;8.53;;
20140;SDS011;10231;47.702;9.826;2024-01-15T04:50:21;9.63;;;7.03;;
20140;SDS011;10231;47.702;9.826;2024-01-15T04:52:47;10.10;;;7.27;;
20140;SDS011;10231;47.702;9.826;2024-01-15T04:55:12;11.00;;;7.70;;
20140;SDS011;10231;47.702;9.826;2024-01-15T04:57:38;10.40;;;8.67;;
20140;SDS011;10231;47.702;9.826;2024-01-15T05:00:04;15.23;;;9.30;;
20140;SDS011;10231;47.702;9.826;2024-01-15T05:02:30;22.07;;;12.03;;
20140;SDS011;10231;47.702;9.826;2024-01-15T05:04:55;17.60;;;11.20;;
20140;SDS011;10231;47.702;9.826;2024-01-15T05:07:21;17.77;;;10.90;;
20140;SDS011;10231;47.702;9.826;2024-01-15T05:09:47;15.07;;;9.77;;
20140;SDS011;10231;47.702;9.826;2024-01-15T05:12:12;10.70;;;8.00;;
20140;SDS011;10231;47.702;9.826;2024-01-15T05:14:38;11.77;;;8.10;;
20140;SDS011;10231;47.702;9.826;2024-01-15T05:17:04;12.67;;;8.27;;
20140;SDS011;10231;47.702;9.826;2024-01-15T05:19:29;12.77;;;7.90;;
20140;SDS011;10231;47.702;9.826;2024-01-15T05:21:55;12.40;;;8.03;;
20140;SDS011;10231;47.702;9.826;2024-01-15T05:24:20;12.40;;;8.50;;
20140;SDS011;10231;47.702;9.826;2024-01-15T05:26:46;14.57;;;9.43;;
20140;SDS011;10231;47.702;9.826;2024-01-15T05:29:12;11.70;;;7.90;;
20140;SDS011;10231;47.702;9.826;2024-01-15T05:31:37;10.43;;;7.83;;
20140;SDS011;10231;47.702;9.826;2024-01-15T05:34:03;11.33;;;8.17;;
20140;SDS011;10231;47.702;9.826;2024-01-15T05:36:28;11.70;;;8.13;;
20140;SDS011;10231;47.702;9.826;2024-01-15T05:38:54;12.37;;;7.73;;
20140;SDS011;10231;47.702;9.826;2024-01-15T05:41:19;12.50;;;8.43;;
20140;SDS011;10231;47.702;9.826;2024-01-15T05:43:45;11.90;;;8.40;;
20140;SDS011;10231;47.702;9.826;2024-01-15T05:46:10;11.40;;;8.27;;
20140;SDS011;10231;47.702;9.826;2024-01-15T05:48:36;12.73;;;8.33;;
20140;SDS011;10231;47.702;9.826;2024-01-15T05:51:01;12.40;;;8.17;;
20140;SDS011;10231;47.702;9.826;2024-01-15T05:53:27;13.00;;;7.83;;
20140;SDS011;10231;47.702;9.826;2024-01-15T05:55:52;12.37;;;7.70;;
20140;SDS011;10231;47.702;9.826;2024-01-15T05:58:20;13.93;;;8.23;;
20140;SDS011;10231;47.702;9.826;2024-01-15T06:00:46;13.23;;;8.43;;
20140;SDS011;10231;47.702;9.826;2024-01-15T06:03:12;12.93;;;8.53;;
20140;SDS011;10231;47.702;9.826;2024-01-15T06:05:38;15.17;;;9.57;;
20140;SDS011;10231;47.702;9.826;2024-01-15T06:08:04;12.00;;;8.00;;
20140;SDS011;10231;47.702;9.826;2024-01-15T06:10:30;13.87;;;9.73;;
20140;SDS011;10231;47.702;9.826;2024-01-15T06:12:56;15.23;;;10.00;;
20140;SDS011;10231;47.702;9.826;2024-01-15T06:15:21;12.87;;;9.77;;
20140;SDS011;10231;47.702;9.826;2024-01-15T06:17:47;14.30;;;9.37;;
20140;SDS011;10231;47.702;9.826;2024-01-15T06:20:12;17.43;;;9.67;;
20140;SDS011;10231;47.702;9.826;2024-01-15T06:22:38;15.80;;;10.07;;
20140;SDS011;10231;47.702;9.826;2024-01-15T06:25:05;13.90;;;9.43;;
20140;SDS011;10231;47.702;9.826;2024-01-15T06:27:33;13.67;;;10.27;;
20140;SDS011;10231;47.702;9.826;2024-01-15T06:29:59;16.87;;;10.37;;
20140;SDS011;10231;47.702;9.826;2024-01-15T06:32:25;15.83;;;10.63;;
20140;SDS011;10231;47.702;9.826;2024-01-15T06:34:50;15.43;;;9.43;;
20140;SDS011;10231;47.702;9.826;2024-01-15T06:37:16;13.43;;;9.07;;
20140;SDS011;10231;47.702;9.826;2024-01-15T06:39:43;15.07;;;9.53;;
20140;SDS011;10231;47.702;9.826;2024-01-15T06:42:09;15.80;;;9.77;;
20140;SDS011;10231;47.702;9.826;2024-01-15T06:44:34;14.13;;;8.87;;
20140;SDS011;10231;47.702;9.826;2024-01-15T06:47:00;14.13;;;8.83;;
20140;SDS011;10231;47.702;9.826;2024-01-15T06:49:28;14.33;;;8.90;;
20140;SDS011;10231;47.702;9.826;2024-01-15T06:51:54;12.03;;;7.77;;
20140;SDS011;10231;47.702;9.826;2024-01-15T06:54:20;12.27;;;7.87;;
20140;SDS011;10231;47.702;9.826;2024-01-15T06:56:45;11.70;;;7.40;;
20140;SDS011;10231;47.702;9.826;2024-01-15T06:59:11;11.40;;;7.20;;
20140;SDS011;10231;47.702;9.826;2024-01-15T07:01:36;13.30;;;8.40;;
20140;SDS011;10231;47.702;9.826;2024-01-15T07:04:02;11.47;;;8.30;;
20140;SDS011;10231;47.702;9.826;2024-01-15T07:06:28;10.50;;;7.40;;
20140;SDS011;10231;47.702;9.826;2024-01-15T07:08:55;11.17;;;7.23;;
20140;SDS011;10231;47.702;9.826;2024-01-15T07:11:21;10.70;;;6.27;;
20140;SDS011;10231;47.702;9.826;2024-01-15T07:13:46;10.87;;;6.90;;
20140;SDS011;10231;47.702;9.826;2024-01-15T07:16:12;8.40;;;6.23;;
20140;SDS011;10231;47.702;9.826;2024-01-15T07:18:38;10.13;;;6.67;;
20140;SDS011;10231;47.702;9.826;2024-01-15T07:21:03;9.80;;;5.93;;
20140;SDS011;10231;47.702;9.826;2024-01-15T07:23:30;9.13;;;6.27;;
20140;SDS011;10231;47.702;9.826;2024-01-15T07:25:56;11.70;;;7.03;;
20140;SDS011;10231;47.702;9.826;2024-01-15T07:28:25;10.03;;;6.33;;
20140;SDS011;10231;47.702;9.826;2024-01-15T07:30:53;7.67;;;6.17;;
20140;SDS011;10231;47.702;9.826;2024-01-15T07:33:19;9.77;;;6.03;;
20140;SDS011;10231;47.702;9.826;2024-01-15T07:35:45;8.93;;;6.63;;
20140;SDS011;10231;47.702;9.826;2024-01-15T07:38:10;7.27;;;5.47;;
20140;SDS011;10231;47.702;9.826;2024-01-15T07:40:36;7.50;;;5.60;;
20140;SDS011;10231;47.702;9.826;2024-01-15T07:43:02;8.00;;;5.73;;
20140;SDS011;10231;47.702;9.826;2024-01-15T07:45:28;8.73;;;5.37;;
20140;SDS011;10231;47.702;9.826;2024-01-15T07:47:53;8.43;;;5.33;;
20140;SDS011;10231;47.702;9.826;2024-01-15T07:50:19;8.30;;;5.20;;
20140;SDS011;10231;47.702;9.826;2024-01-15T07:52:45;7.67;;;5.40;;
20140;SDS011;10231;47.702;9.826;2024-01-15T07:55:10;7.43;;;4.80;;
20140;SDS011;10231;47.702;9.826;2024-01-15T07:57:36;8.00;;;5.10;;
20140;SDS011;10231;47.702;9.826;2024-01-15T08:00:02;8.47;;;5.33;;
20140;SDS011;10231;47.702;9.826;2024-01-15T08:02:29;6.73;;;4.93;;
20140;SDS011;10231;47.702;9.826;2024-01-15T08:04:56;7.37;;;4.90;;
20140;SDS011;10231;47.702;9.826;2024-01-15T08:07:23;6.87;;;5.40;;
20140;SDS011;10231;47.702;9.826;2024-01-15T08:09:50;7.20;;;5.10;;
20140;SDS011;10231;47.702;9.826;2024-01-15T08:12:17;8.80;;;5.60;;
20140;SDS011;10231;47.702;9.826;2024-01-15T08:14:42;8.97;;;5.73;;
20140;SDS011;10231;47.702;9.826;2024-01-15T08:17:08;7.73;;;5.40;;
20140;SDS011;10231;47.702;9.826;2024-01-15T08:19:33;8.60;;;5.80;;
20140;SDS011;10231;47.702;9.826;2024-01-15T08:21:59;8.50;;;5.60;;
20140;SDS011;10231;47.702;9.826;2024-01-15T08:24:24;8.07;;;5.30;;
20140;SDS011;10231;47.702;9.826;2024-01-15T08:26:50;10.03;;;5.93;;
20140;SDS011;10231;47.702;9.826;2024-01-15T08:29:16;9.43;;;5.93;;
20140;SDS011;10231;47.702;9.826;2024-01-15T08:31:43;7.77;;;5.20;;
20140;SDS011;10231;47.702;9.826;2024-01-15T08:34:09;9.47;;;6.33;;
20140;SDS011;10231;47.702;9.826;2024-01-15T08:36:34;8.90;;;5.93;;
20140;SDS011;10231;47.702;9.826;2024-01-15T08:39:01;8.23;;;6.00;;
20140;SDS011;10231;47.702;9.826;2024-01-15T08:41:29;8.73;;;5.97;;
20140;SDS011;10231;47.702;9.826;2024-01-15T08:43:55;9.63;;;5.87;;
20140;SDS011;10231;47.702;9.826;2024-01-15T08:46:21;10.03;;;6.77;;
20140;SDS011;10231;47.702;9.826;2024-01-15T08:48:46;9.57;;;6.40;;
20140;SDS011;10231;47.702;9.826;2024-01-15T08:51:12;10.50;;;6.80;;
20140;SDS011;10231;47.702;9.826;2024-01-15T08:53:37;9.87;;;6.47;;
20140;SDS011;10231;47.702;9.826;2024-01-15T08:56:04;9.50;;;6.73;;
20140;SDS011;10231;47.702;9.826;2024-01-15T08:58:31;8.97;;;6.27;;
20140;SDS011;10231;47.702;9.826;2024-01-15T09:00:56;10.60;;;6.60;;
20140;SDS011;10231;47.702;9.826;2024-01-15T09:03:22;9.07;;;6.33;;
20140;SDS011;10231;47.702;9.826;2024-01-15T09:05:47;9.47;;;7.47;;
20140;SDS011;10231;47.702;9.826;2024-01-15T09:08:15;9.27;;;6.23;;
20140;SDS011;10231;47.702;9.826;2024-01-15T09:10:40;10.30;;;6.67;;
20140;SDS011;10231;47.702;9.826;2024-01-15T09:13:06;11.17;;;7.47;;
20140;SDS011;10231;47.702;9.826;2024-01-15T09:15:31;12.77;;;7.57;;
20140;SDS011;10231;47.702;9.826;2024-01-15T09:17:57;10.50;;;6.90;;
20140;SDS011;10231;47.702;9.826;2024-01-15T09:20:23;14.77;;;8.73;;
20140;SDS011;10231;47.702;9.826;2024-01-15T09:22:51;10.07;;;6.97;;
20140;SDS011;10231;47.702;9.826;2024-01-15T09:25:16;12.60;;;7.77;;
20140;SDS011;10231;47.702;9.826;2024-01-15T09:27:42;11.87;;;7.83;;
20140;SDS011;10231;47.702;9.826;2024-01-15T09:30:07;11.03;;;6.67;;
20140;SDS011;10231;47.702;9.826;2024-01-15T09:32:33;12.13;;;7.53;;
20140;SDS011;10231;47.702;9.826;2024-01-15T09:34:59;12.07;;;7.93;;
20140;SDS011;10231;47.702;9.826;2024-01-15T09:37:25;12.50;;;8.30;;
20140;SDS011;10231;47.702;9.826;2024-01-15T09:39:50;11.33;;;7.67;;
20140;SDS011;10231;47.702;9.826;2024-01-15T09:42:16;14.87;;;7.90;;
20140;SDS011;10231;47.702;9.826;2024-01-15T09:44:42;12.17;;;7.80;;
20140;SDS011;10231;47.702;9.826;2024-01-15T09:47:08;15.10;;;8.57;;
20140;SDS011;10231;47.702;9.826;2024-01-15T09:49:34;13.73;;;8.20;;
20140;SDS011;10231;47.702;9.826;2024-01-15T09:52:00;15.40;;;9.00;;
20140;SDS011;10231;47.702;9.826;2024-01-15T09:54:26;11.00;;;7.80;;
20140;SDS011;10231;47.702;9.826;2024-01-15T09:56:52;13.90;;;7.77;;
20140;SDS011;10231;47.702;9.826;2024-01-15T09:59:19;13.97;;;8.17;;
20140;SDS011;10231;47.702;9.826;2024-01-15T10:01:46;14.57;;;8.70;;
20140;SDS011;10231;47.702;9.826;2024-01-15T10:04:15;14.37;;;9.13;;
20140;SDS011;10231;47.702;9.826;2024-01-15T10:06:42;13.73;;;9.07;;
20140;SDS011;10231;47.702;9.826;2024-01-15T10:09:13;11.00;;;8.40;;
20140;SDS011;10231;47.702;9.826;2024-01-15T10:11:41;14.63;;;9.80;;
20140;SDS011;10231;47.702;9.826;2024-01-15T10:14:08;15.17;;;8.90;;
20140;SDS011;10231;47.702;9.826;2024-01-15T10:16:38;15.80;;;9.37;;
20140;SDS011;10231;47.702;9.826;2024-01-15T10:19:04;14.57;;;9.53;;
20140;SDS011;10231;47.702;9.826;2024-01-15T10:21:31;12.40;;;8.60;;
20140;SDS011;10231;47.702;9.826;2024-01-15T10:23:59;10.27;;;7.67;;
20140;SDS011;10231;47.702;9.826;2024-01-15T10:26:26;18.27;;;9.57;;
20140;SDS011;10231;47.702;9.826;2024-01-15T10:28:52;12.83;;;7.63;;
20140;SDS011;10231;47.702;9.826;2024-01-15T10:31:17;13.43;;;8.57;;
20140;SDS011;10231;47.702;9.826;2024-01-15T10:33:44;13.37;;;8.70;;
20140;SDS011;10231;47.702;9.826;2024-01-15T10:36:10;12.37;;;7.87;;
20140;SDS011;10231;47.702;9.826;2024-01-15T10:38:38;10.70;;;8.07;;
20140;SDS011;10231;47.702;9.826;2024-01-15T10:41:04;11.90;;;8.20;;
20140;SDS011;10231;47.702;9.826;2024-01-15T10:43:29;13.23;;;8.13;;
20140;SDS011;10231;47.702;9.826;2024-01-15T10:45:55;14.17;;;7.90;;
20140;SDS011;10231;47.702;9.826;2024-01-15T10:48:21;12.63;;;8.10;;
20140;SDS011;10231;47.702;9.826;2024-01-15T10:50:47;13.03;;;7.67;;
20140;SDS011;10231;47.702;9.826;2024-01-15T10:53:13;11.30;;;8.33;;
20140;SDS011;10231;47.702;9.826;2024-01-15T10:55:41;12.20;;;7.63;;
20140;SDS011;10231;47.702;9.826;2024-01-15T10:58:07;11.83;;;7.93;;
20140;SDS011;10231;47.702;9.826;2024-01-15T11:00:36;11.47;;;7.40;;
20140;SDS011;10231;47.702;9.826;2024-01-15T11:03:04;11.77;;;7.63;;
20140;SDS011;10231;47.702;9.826;2024-01-15T11:05:36;10.57;;;7.37;;
20140;SDS011;10231;47.702;9.826;2024-01-15T11:08:11;10.40;;;7.70;;
20140;SDS011;10231;47.702;9.826;2024-01-15T11:10:43;12.43;;;7.10;;
20140;SDS011;10231;47.702;9.826;2024-01-15T11:15:58;12.20;;;7.37;;
20140;SDS011;10231;47.702;9.826;2024-01-15T11:18:40;10.97;;;7.13;;
20140;SDS011;10231;47.702;9.826;2024-01-15T11:23:51;13.83;;;8.53;;
20140;SDS011;10231;47.702;9.826;2024-01-15T11:26:36;11.67;;;8.10;;
20140;SDS011;10231;47.702;9.826;2024-01-15T11:34:20;9.87;;;7.67;;
20140;SDS011;10231;47.702;9.826;2024-01-15T11:41:56;10.00;;;7.13;;
20140;SDS011;10231;47.702;9.826;2024-01-15T11:44:23;9.33;;;6.60;;
20140;SDS011;10231;47.702;9.826;2024-01-15T11:46:57;9.10;;;6.73;;
20140;SDS011;10231;47.702;9.826;2024-01-15T11:52:06;7.33;;;6.33;;
20140;SDS011;10231;47.702;9.826;2024-01-15T11:54:36;8.80;;;6.13;;
20140;SDS011;10231;47.702;9.826;2024-01-15T11:57:08;9.47;;;6.90;;
20140;SDS011;10231;47.702;9.826;2024-01-15T11:59:40;9.00;;;6.67;;
20140;SDS011;10231;47.702;9.826;2024-01-15T12:02:06;9.13;;;6.23;;
20140;SDS011;10231;47.702;9.826;2024-01-15T12:04:32;8.30;;;6.87;;
20140;SDS011;10231;47.702;9.826;2024-01-15T12:06:58;8.77;;;6.47;;
20140;SDS011;10231;47.702;9.826;2024-01-15T12:09:23;9.07;;;6.40;;
20140;SDS011;10231;47.702;9.826;2024-01-15T12:11:51;8.17;;;6.10;;
20140;SDS011;10231;47.702;9.826;2024-01-15T12:14:27;7.63;;;6.07;;
20140;SDS011;10231;47.702;9.826;2024-01-15T12:16:54;6.30;;;5.20;;
20140;SDS011;10231;47.702;9.826;2024-01-15T12:19:20;8.30;;;5.27;;
20140;SDS011;10231;47.702;9.826;2024-01-15T12:21:45;5.93;;;5.00;;
20140;SDS011;10231;47.702;9.826;2024-01-15T12:24:12;7.27;;;5.13;;
20140;SDS011;10231;47.702;9.826;2024-01-15T12:26:37;8.83;;;5.93;;
20140;SDS011;10231;47.702;9.826;2024-01-15T12:29:03;7.43;;;5.73;;
20140;SDS011;10231;47.702;9.826;2024-01-15T12:31:31;9.33;;;5.90;;
20140;SDS011;10231;47.702;9.826;2024-01-15T12:33:57;5.63;;;5.03;;
20140;SDS011;10231;47.702;9.826;2024-01-15T12:36:23;6.37;;;5.07;;
20140;SDS011;10231;47.702;9.826;2024-01-15T12:38:48;8.67;;;5.23;;
20140;SDS011;10231;47.702;9.826;2024-01-15T12:41:14;4.73;;;4.23;;
20140;SDS011;10231;47.702;9.826;2024-01-15T12:43:40;5.70;;;4.80;;
20140;SDS011;10231;47.702;9.826;2024-01-15T12:46:06;5.50;;;5.00;;
20140;SDS011;10231;47.702;9.826;2024-01-15T12:48:31;5.93;;;4.97;;
20140;SDS011;10231;47.702;9.826;2024-01-15T12:50:57;5.50;;;4.87;;
20140;SDS011;10231;47.702;9.826;2024-01-15T12:53:22;5.30;;;4.63;;
20140;SDS011;10231;47.702;9.826;2024-01-15T12:55:48;4.33;;;3.83;;
20140;SDS011;10231;47.702;9.826;2024-01-15T12:58:14;5.10;;;4.53;;
20140;SDS011;10231;47.702;9.826;2024-01-15T13:00:39;5.93;;;4.43;;
20140;SDS011;10231;47.702;9.826;2024-01-15T13:03:05;5.37;;;4.40;;
20140;SDS011;10231;47.702;9.826;2024-01-15T13:05:32;4.60;;;4.20;;
20140;SDS011;10231;47.702;9.826;2024-01-15T13:07:58;5.70;;;4.77;;
20140;SDS011;10231;47.702;9.826;2024-01-15T13:10:24;5.47;;;4.97;;
20140;SDS011;10231;47.702;9.826;2024-01-15T13:12:50;5.63;;;3.70;;
20140;SDS011;10231;47.702;9.826;2024-01-15T13:15:15;5.33;;;3.70;;
20140;SDS011;10231;47.702;9.826;2024-01-15T13:17:42;4.10;;;3.40;;
20140;SDS011;10231;47.702;9.826;2024-01-15T13:20:07;4.53;;;4.10;;
20140;SDS011;10231;47.702;9.826;2024-01-15T13:22:33;3.47;;;3.17;;
20140;SDS011;10231;47.702;9.826;2024-01-15T13:24:59;5.63;;;4.13;;
20140;SDS011;10231;47.702;9.826;2024-01-15T13:27:25;3.97;;;3.67;;
20140;SDS011;10231;47.702;9.826;2024-01-15T13:29:51;4.70;;;4.17;;
20140;SDS011;10231;47.702;9.826;2024-01-15T13:32:17;4.10;;;3.70;;
20140;SDS011;10231;47.702;9.826;2024-01-15T13:34:49;4.60;;;3.93;;
20140;SDS011;10231;47.702;9.826;2024-01-15T13:37:15;3.40;;;3.10;;
20140;SDS011;10231;47.702;9.826;2024-01-15T13:39:41;4.60;;;3.83;;
20140;SDS011;10231;47.702;9.826;2024-01-15T13:42:06;4.53;;;4.10;;
20140;SDS011;10231;47.702;9.826;2024-01-15T13:44:32;5.00;;;4.50;;
20140;SDS011;10231;47.702;9.826;2024-01-15T13:46:57;3.77;;;3.43;;
20140;SDS011;10231;47.702;9.826;2024-01-15T13:49:23;5.47;;;4.10;;
20140;SDS011;10231;47.702;9.826;2024-01-15T13:51:49;5.03;;;3.87;;
20140;SDS011;10231;47.702;9.826;2024-01-15T13:54:15;6.03;;;5.00;;
20140;SDS011;10231;47.702;9.826;2024-01-15T13:56:40;5.50;;;3.83;;
20140;SDS011;10231;47.702;9.826;2024-01-15T13:59:07;3.70;;;3.40;;
20140;SDS011;10231;47.702;9.826;2024-01-15T14:01:32;4.90;;;4.40;;
20140;SDS011;10231;47.702;9.826;2024-01-15T14:03:58;4.67;;;3.97;;
20140;SDS011;10231;47.702;9.826;2024-01-15T14:06:24;5.97;;;4.97;;
20140;SDS011;10231;47.702;9.826;2024-01-15T14:08:50;4.03;;;3.63;;
20140;SDS011;10231;47.702;9.826;2024-01-15T14:11:15;4.90;;;4.30;;
20140;SDS011;10231;47.702;9.826;2024-01-15T14:13:41;5.67;;;4.27;;
20140;SDS011;10231;47.702;9.826;2024-01-15T14:16:06;5.43;;;4.57;;
20140;SDS011;10231;47.702;9.826;2024-01-15T14:18:32;5.60;;;4.43;;
20140;SDS011;10231;47.702;9.826;2024-01-15T14:20:57;4.87;;;4.37;;
20140;SDS011;10231;47.702;9.826;2024-01-15T14:23:23;4.40;;;4.00;;
20140;SDS011;10231;47.702;9.826;2024-01-15T14:25:48;4.63;;;4.07;;
20140;SDS011;10231;47.702;9.826;2024-01-15T14:28:14;4.53;;;3.97;;
20140;SDS011;10231;47.702;9.826;2024-01-15T14:30:39;5.47;;;4.17;;
20140;SDS011;10231;47.702;9.826;2024-01-15T14:33:05;4.20;;;3.80;;
20140;SDS011;10231;47.702;9.826;2024-01-15T14:35:31;4.03;;;3.60;;
20140;SDS011;10231;47.702;9.826;2024-01-15T14:37:56;4.20;;;3.80;;
20140;SDS011;10231;47.702;9.826;2024-01-15T14:40:23;4.30;;;3.90;;
20140;SDS011;10231;47.702;9.826;2024-01-15T14:42:50;4.40;;;3.80;;
20140;SDS011;10231;47.702;9.826;2024-01-15T14:45:16;4.13;;;3.73;;
20140;SDS011;10231;47.702;9.826;2024-01-15T14:47:42;5.17;;;4.17;;
20140;SDS011;10231;47.702;9.826;2024-01-15T14:50:09;4.30;;;3.30;;